sensor_id;sensor_type;location;lat;lon;timestamp;P1;durP1;ratioP1;P2;durP2;ratioP2
14776;SDS011;7480;43.124;25.686;2023-07-09T00:00:13;14.63;;;10.10;;
14776;SDS011;7480;43.124;25.686;2023-07-09T00:02:42;11.78;;;10.60;;
14776;SDS011;7480;43.124;25.686;2023-07-09T00:05:13;15.17;;;10.93;;
14776;SDS011;7480;43.124;25.686;2023-07-09T00:07:41;17.77;;;11.77;;
14776;SDS011;7480;43.124;25.686;2023-07-09T00:10:27;17.93;;;11.30;;
14776;SDS011;7480;43.124;25.686;2023-07-09T00:12:54;18.80;;;11.43;;
14776;SDS011;7480;43.124;25.686;2023-07-09T00:15:20;15.33;;;12.20;;
14776;SDS011;7480;43.124;25.686;2023-07-09T00:17:48;13.83;;;11.20;;
14776;SDS011;7480;43.124;25.686;2023-07-09T00:20:16;14.73;;;11.80;;
14776;SDS011;7480;43.124;25.686;2023-07-09T00:22:44;14.53;;;11.37;;
14776;SDS011;7480;43.124;25.686;2023-07-09T00:25:19;15.97;;;12.13;;
14776;SDS011;7480;43.124;25.686;2023-07-09T00:27:46;16.07;;;12.47;;
14776;SDS011;7480;43.124;25.686;2023-07-09T00:30:17;14.43;;;11.23;;
14776;SDS011;7480;43.124;25.686;2023-07-09T00:32:45;17.80;;;12.10;;
14776;SDS011;7480;43.124;25.686;2023-07-09T00:35:12;12.67;;;10.67;;
14776;SDS011;7480;43.124;25.686;2023-07-09T00:37:43;55.73;;;10.60;;
14776;SDS011;7480;43.124;25.686;2023-07-09T00:40:22;45.40;;;10.97;;
14776;SDS011;7480;43.124;25.686;2023-07-09T00:42:50;23.93;;;9.63;;
14776;SDS011;7480;43.124;25.686;2023-07-09T00:45:19;93.53;;;10.50;;
14776;SDS011;7480;43.124;25.686;2023-07-09T00:47:53;250.23;;;15.87;;
14776;SDS011;7480;43.124;25.686;2023-07-09T00:53:03;154.53;;;11.93;;
14776;SDS011;7480;43.124;25.686;2023-07-09T00:55:35;162.93;;;12.67;;
14776;SDS011;7480;43.124;25.686;2023-07-09T00:58:06;325.27;;;14.50;;
14776;SDS011;7480;43.124;25.686;2023-07-09T01:00:37;227.90;;;16.60;;
14776;SDS011;7480;43.124;25.686;2023-07-09T01:03:23;246.67;;;14.47;;
14776;SDS011;7480;43.124;25.686;2023-07-09T01:05:56;79.00;;;11.10;;
14776;SDS011;7480;43.124;25.686;2023-07-09T01:08:24;69.97;;;11.17;;
14776;SDS011;7480;43.124;25.686;2023-07-09T01:10:51;99.27;;;11.47;;
14776;SDS011;7480;43.124;25.686;2023-07-09T01:13:18;64.23;;;10.07;;
14776;SDS011;7480;43.124;25.686;2023-07-09T01:15:46;77.67;;;10.40;;
14776;SDS011;7480;43.124;25.686;2023-07-09T01:18:13;52.73;;;9.63;;
14776;SDS011;7480;43.124;25.686;2023-07-09T01:20:41;60.50;;;10.83;;
14776;SDS011;7480;43.124;25.686;2023-07-09T01:23:08;56.17;;;10.23;;
14776;SDS011;7480;43.124;25.686;2023-07-09T01:25:36;52.70;;;11.13;;
14776;SDS011;7480;43.124;25.686;2023-07-09T01:28:05;48.67;;;10.40;;
14776;SDS011;7480;43.124;25.686;2023-07-09T01:30:33;58.37;;;10.93;;
14776;SDS011;7480;43.124;25.686;2023-07-09T01:33:02;34.77;;;10.17;;
14776;SDS011;7480;43.124;25.686;2023-07-09T01:35:30;38.07;;;11.43;;
14776;SDS011;7480;43.124;25.686;2023-07-09T01:37:58;33.00;;;11.77;;
14776;SDS011;7480;43.124;25.686;2023-07-09T01:40:25;47.07;;;11.30;;
14776;SDS011;7480;43.124;25.686;2023-07-09T01:42:59;38.07;;;10.73;;
14776;SDS011;7480;43.124;25.686;2023-07-09T01:45:27;78.67;;;11.80;;
14776;SDS011;7480;43.124;25.686;2023-07-09T01:47:54;47.47;;;11.57;;
14776;SDS011;7480;43.124;25.686;2023-07-09T01:50:22;51.00;;;11.10;;
14776;SDS011;7480;43.124;25.686;2023-07-09T01:52:51;132.50;;;13.40;;
14776;SDS011;7480;43.124;25.686;2023-07-09T01:55:18;48.80;;;12.30;;
14776;SDS011;7480;43.124;25.686;2023-07-09T01:57:45;82.88;;;12.82;;
14776;SDS011;7480;43.124;25.686;2023-07-09T02:00:13;65.10;;;12.30;;
14776;SDS011;7480;43.124;25.686;2023-07-09T02:02:42;26.07;;;11.10;;
14776;SDS011;7480;43.124;25.686;2023-07-09T02:05:10;20.10;;;10.83;;
14776;SDS011;7480;43.124;25.686;2023-07-09T02:07:39;16.77;;;11.60;;
14776;SDS011;7480;43.124;25.686;2023-07-09T02:10:06;16.47;;;11.40;;
14776;SDS011;7480;43.124;25.686;2023-07-09T02:12:33;28.83;;;11.33;;
14776;SDS011;7480;43.124;25.686;2023-07-09T02:15:00;14.70;;;11.17;;
14776;SDS011;7480;43.124;25.686;2023-07-09T02:17:26;15.70;;;11.73;;
14776;SDS011;7480;43.124;25.686;2023-07-09T02:19:53;16.97;;;11.77;;
14776;SDS011;7480;43.124;25.686;2023-07-09T02:22:20;15.10;;;11.13;;
14776;SDS011;7480;43.124;25.686;2023-07-09T02:24:47;13.50;;;10.50;;
14776;SDS011;7480;43.124;25.686;2023-07-09T02:27:15;13.43;;;9.77;;
14776;SDS011;7480;43.124;25.686;2023-07-09T02:29:42;17.80;;;9.20;;
14776;SDS011;7480;43.124;25.686;2023-07-09T02:32:09;16.27;;;9.53;;
14776;SDS011;7480;43.124;25.686;2023-07-09T02:34:44;16.47;;;9.93;;
14776;SDS011;7480;43.124;25.686;2023-07-09T02:37:16;13.37;;;9.97;;
14776;SDS011;7480;43.124;25.686;2023-07-09T02:39:44;11.40;;;10.20;;
14776;SDS011;7480;43.124;25.686;2023-07-09T02:42:12;15.50;;;10.37;;
14776;SDS011;7480;43.124;25.686;2023-07-09T02:44:40;15.43;;;11.00;;
14776;SDS011;7480;43.124;25.686;2023-07-09T02:47:07;18.17;;;11.23;;
14776;SDS011;7480;43.124;25.686;2023-07-09T02:49:34;15.30;;;11.00;;
14776;SDS011;7480;43.124;25.686;2023-07-09T02:52:02;18.77;;;10.57;;
14776;SDS011;7480;43.124;25.686;2023-07-09T02:54:29;14.27;;;11.03;;
14776;SDS011;7480;43.124;25.686;2023-07-09T02:56:55;15.07;;;10.60;;
14776;SDS011;7480;43.124;25.686;2023-07-09T02:59:22;15.97;;;10.57;;
14776;SDS011;7480;43.124;25.686;2023-07-09T03:01:49;23.67;;;11.17;;
14776;SDS011;7480;43.124;25.686;2023-07-09T03:04:16;15.77;;;10.80;;
14776;SDS011;7480;43.124;25.686;2023-07-09T03:06:42;14.93;;;11.73;;
14776;SDS011;7480;43.124;25.686;2023-07-09T03:09:11;15.53;;;11.33;;
14776;SDS011;7480;43.124;25.686;2023-07-09T03:11:38;14.97;;;11.53;;
14776;SDS011;7480;43.124;25.686;2023-07-09T03:14:04;15.73;;;10.30;;
14776;SDS011;7480;43.124;25.686;2023-07-09T03:16:32;10.50;;;9.13;;
14776;SDS011;7480;43.124;25.686;2023-07-09T03:19:00;9.67;;;8.70;;
14776;SDS011;7480;43.124;25.686;2023-07-09T03:21:27;10.90;;;8.17;;
14776;SDS011;7480;43.124;25.686;2023-07-09T03:23:54;8.93;;;6.87;;
14776;SDS011;7480;43.124;25.686;2023-07-09T03:26:21;14.30;;;6.90;;
14776;SDS011;7480;43.124;25.686;2023-07-09T03:28:50;7.40;;;6.22;;
14776;SDS011;7480;43.124;25.686;2023-07-09T03:31:16;10.63;;;6.67;;
14776;SDS011;7480;43.124;25.686;2023-07-09T03:33:43;7.03;;;5.40;;
14776;SDS011;7480;43.124;25.686;2023-07-09T03:36:11;7.70;;;5.23;;
14776;SDS011;7480;43.124;25.686;2023-07-09T03:38:37;8.27;;;5.10;;
14776;SDS011;7480;43.124;25.686;2023-07-09T03:41:04;14.40;;;6.00;;
14776;SDS011;7480;43.124;25.686;2023-07-09T03:43:31;8.03;;;4.97;;
14776;SDS011;7480;43.124;25.686;2023-07-09T03:45:57;8.80;;;4.90;;
14776;SDS011;7480;43.124;25.686;2023-07-09T03:48:24;7.67;;;4.90;;
14776;SDS011;7480;43.124;25.686;2023-07-09T03:50:51;7.60;;;4.60;;
14776;SDS011;7480;43.124;25.686;2023-07-09T03:53:18;5.63;;;4.70;;
14776;SDS011;7480;43.124;25.686;2023-07-09T03:55:45;4.90;;;3.83;;
14776;SDS011;7480;43.124;25.686;2023-07-09T03:58:12;7.87;;;4.43;;
14776;SDS011;7480;43.124;25.686;2023-07-09T04:00:39;6.77;;;4.30;;
14776;SDS011;7480;43.124;25.686;2023-07-09T04:03:07;6.83;;;4.00;;
14776;SDS011;7480;43.124;25.686;2023-07-09T04:05:35;8.23;;;4.23;;
14776;SDS011;7480;43.124;25.686;2023-07-09T04:08:01;7.57;;;4.30;;
14776;SDS011;7480;43.124;25.686;2023-07-09T04:10:29;7.22;;;4.38;;
14776;SDS011;7480;43.124;25.686;2023-07-09T04:12:56;6.95;;;4.75;;
14776;SDS011;7480;43.124;25.686;2023-07-09T04:15:22;6.55;;;4.65;;
14776;SDS011;7480;43.124;25.686;2023-07-09T04:17:49;6.70;;;4.05;;
14776;SDS011;7480;43.124;25.686;2023-07-09T04:20:16;5.47;;;4.00;;
14776;SDS011;7480;43.124;25.686;2023-07-09T04:22:42;4.40;;;3.95;;
14776;SDS011;7480;43.124;25.686;2023-07-09T04:25:09;9.88;;;4.75;;
14776;SDS011;7480;43.124;25.686;2023-07-09T04:27:38;6.28;;;4.30;;
14776;SDS011;7480;43.124;25.686;2023-07-09T04:30:05;6.43;;;4.03;;
14776;SDS011;7480;43.124;25.686;2023-07-09T04:32:34;5.50;;;4.10;;
14776;SDS011;7480;43.124;25.686;2023-07-09T04:35:02;5.28;;;4.25;;
14776;SDS011;7480;43.124;25.686;2023-07-09T04:37:33;6.70;;;3.33;;
14776;SDS011;7480;43.124;25.686;2023-07-09T04:39:59;5.50;;;3.20;;
14776;SDS011;7480;43.124;25.686;2023-07-09T04:42:27;3.35;;;2.80;;
14776;SDS011;7480;43.124;25.686;2023-07-09T04:44:53;4.30;;;2.72;;
14776;SDS011;7480;43.124;25.686;2023-07-09T04:47:20;4.40;;;2.90;;
14776;SDS011;7480;43.124;25.686;2023-07-09T04:49:47;3.63;;;2.58;;
14776;SDS011;7480;43.124;25.686;2023-07-09T04:52:14;4.05;;;2.80;;
14776;SDS011;7480;43.124;25.686;2023-07-09T04:54:41;6.95;;;3.50;;
14776;SDS011;7480;43.124;25.686;2023-07-09T04:57:12;4.93;;;3.40;;
14776;SDS011;7480;43.124;25.686;2023-07-09T04:59:38;5.28;;;3.60;;
14776;SDS011;7480;43.124;25.686;2023-07-09T05:02:05;4.85;;;3.10;;
14776;SDS011;7480;43.124;25.686;2023-07-09T05:04:32;4.65;;;3.22;;
14776;SDS011;7480;43.124;25.686;2023-07-09T05:06:59;3.88;;;3.17;;
14776;SDS011;7480;43.124;25.686;2023-07-09T05:09:26;6.45;;;3.40;;
14776;SDS011;7480;43.124;25.686;2023-07-09T05:11:52;5.40;;;3.97;;
14776;SDS011;7480;43.124;25.686;2023-07-09T05:14:19;3.92;;;3.53;;
14776;SDS011;7480;43.124;25.686;2023-07-09T05:16:46;5.72;;;3.65;;
14776;SDS011;7480;43.124;25.686;2023-07-09T05:19:13;6.50;;;4.07;;
14776;SDS011;7480;43.124;25.686;2023-07-09T05:21:39;6.40;;;4.85;;
14776;SDS011;7480;43.124;25.686;2023-07-09T05:24:06;5.53;;;4.15;;
14776;SDS011;7480;43.124;25.686;2023-07-09T05:26:34;5.45;;;4.35;;
14776;SDS011;7480;43.124;25.686;2023-07-09T05:29:02;5.78;;;4.45;;
14776;SDS011;7480;43.124;25.686;2023-07-09T05:31:30;5.45;;;4.72;;
14776;SDS011;7480;43.124;25.686;2023-07-09T05:33:58;5.95;;;5.40;;
14776;SDS011;7480;43.124;25.686;2023-07-09T05:36:26;9.43;;;5.53;;
14776;SDS011;7480;43.124;25.686;2023-07-09T05:38:54;7.35;;;5.07;;
14776;SDS011;7480;43.124;25.686;2023-07-09T05:41:22;7.35;;;5.63;;
14776;SDS011;7480;43.124;25.686;2023-07-09T05:43:50;6.13;;;5.43;;
14776;SDS011;7480;43.124;25.686;2023-07-09T05:46:18;8.10;;;6.22;;
14776;SDS011;7480;43.124;25.686;2023-07-09T05:48:45;6.55;;;5.82;;
14776;SDS011;7480;43.124;25.686;2023-07-09T05:51:12;9.82;;;6.60;;
14776;SDS011;7480;43.124;25.686;2023-07-09T05:53:39;10.95;;;6.90;;
14776;SDS011;7480;43.124;25.686;2023-07-09T05:56:06;10.82;;;6.45;;
14776;SDS011;7480;43.124;25.686;2023-07-09T05:58:34;7.38;;;6.68;;
14776;SDS011;7480;43.124;25.686;2023-07-09T06:01:00;8.43;;;7.20;;
14776;SDS011;7480;43.124;25.686;2023-07-09T06:03:28;9.07;;;6.80;;
14776;SDS011;7480;43.124;25.686;2023-07-09T06:05:56;7.57;;;6.30;;
14776;SDS011;7480;43.124;25.686;2023-07-09T06:08:23;8.13;;;6.10;;
14776;SDS011;7480;43.124;25.686;2023-07-09T06:11:00;9.73;;;5.40;;
14776;SDS011;7480;43.124;25.686;2023-07-09T06:13:28;6.63;;;5.85;;
14776;SDS011;7480;43.124;25.686;2023-07-09T06:15:59;8.07;;;5.43;;
14776;SDS011;7480;43.124;25.686;2023-07-09T06:18:28;7.00;;;5.25;;
14776;SDS011;7480;43.124;25.686;2023-07-09T06:20:57;6.28;;;5.05;;
14776;SDS011;7480;43.124;25.686;2023-07-09T06:23:24;6.57;;;5.38;;
14776;SDS011;7480;43.124;25.686;2023-07-09T06:25:52;9.80;;;6.18;;
14776;SDS011;7480;43.124;25.686;2023-07-09T06:28:20;6.13;;;4.75;;
14776;SDS011;7480;43.124;25.686;2023-07-09T06:30:48;6.55;;;5.25;;
14776;SDS011;7480;43.124;25.686;2023-07-09T06:33:16;6.00;;;5.40;;
14776;SDS011;7480;43.124;25.686;2023-07-09T06:35:48;7.68;;;5.60;;
14776;SDS011;7480;43.124;25.686;2023-07-09T06:38:20;11.35;;;6.03;;
14776;SDS011;7480;43.124;25.686;2023-07-09T06:40:47;6.78;;;4.82;;
14776;SDS011;7480;43.124;25.686;2023-07-09T06:43:14;6.72;;;5.00;;
14776;SDS011;7480;43.124;25.686;2023-07-09T06:45:47;7.15;;;4.80;;
14776;SDS011;7480;43.124;25.686;2023-07-09T06:48:18;6.68;;;5.05;;
14776;SDS011;7480;43.124;25.686;2023-07-09T06:50:46;7.15;;;4.68;;
14776;SDS011;7480;43.124;25.686;2023-07-09T06:53:13;8.15;;;4.55;;
14776;SDS011;7480;43.124;25.686;2023-07-09T06:55:40;4.18;;;3.78;;
14776;SDS011;7480;43.124;25.686;2023-07-09T06:58:07;5.10;;;4.28;;
14776;SDS011;7480;43.124;25.686;2023-07-09T07:00:37;8.68;;;4.47;;
14776;SDS011;7480;43.124;25.686;2023-07-09T07:03:05;9.68;;;4.40;;
14776;SDS011;7480;43.124;25.686;2023-07-09T07:05:32;9.55;;;4.55;;
14776;SDS011;7480;43.124;25.686;2023-07-09T07:07:59;4.97;;;4.20;;
14776;SDS011;7480;43.124;25.686;2023-07-09T07:10:26;4.47;;;3.90;;
14776;SDS011;7480;43.124;25.686;2023-07-09T07:12:53;7.72;;;4.85;;
14776;SDS011;7480;43.124;25.686;2023-07-09T07:15:20;6.22;;;4.50;;
14776;SDS011;7480;43.124;25.686;2023-07-09T07:17:48;6.05;;;4.60;;
14776;SDS011;7480;43.124;25.686;2023-07-09T07:20:15;6.38;;;4.25;;
14776;SDS011;7480;43.124;25.686;2023-07-09T07:22:43;5.80;;;4.90;;
14776;SDS011;7480;43.124;25.686;2023-07-09T07:25:10;7.53;;;4.75;;
14776;SDS011;7480;43.124;25.686;2023-07-09T07:27:37;8.23;;;4.57;;
14776;SDS011;7480;43.124;25.686;2023-07-09T07:30:04;5.68;;;4.95;;
14776;SDS011;7480;43.124;25.686;2023-07-09T07:32:38;4.78;;;4.25;;
14776;SDS011;7480;43.124;25.686;2023-07-09T07:35:10;6.40;;;4.50;;
14776;SDS011;7480;43.124;25.686;2023-07-09T07:37:36;7.50;;;4.57;;
14776;SDS011;7480;43.124;25.686;2023-07-09T07:40:03;6.05;;;4.45;;
14776;SDS011;7480;43.124;25.686;2023-07-09T07:42:31;4.90;;;4.40;;
14776;SDS011;7480;43.124;25.686;2023-07-09T07:44:57;5.93;;;4.68;;
14776;SDS011;7480;43.124;25.686;2023-07-09T07:47:25;6.55;;;4.45;;
14776;SDS011;7480;43.124;25.686;2023-07-09T07:49:53;7.75;;;4.57;;
14776;SDS011;7480;43.124;25.686;2023-07-09T07:52:20;5.18;;;4.20;;
14776;SDS011;7480;43.124;25.686;2023-07-09T07:54:47;7.55;;;4.68;;
14776;SDS011;7480;43.124;25.686;2023-07-09T07:57:14;4.45;;;3.95;;
14776;SDS011;7480;43.124;25.686;2023-07-09T07:59:41;5.50;;;4.07;;
14776;SDS011;7480;43.124;25.686;2023-07-09T08:02:10;6.93;;;3.90;;
14776;SDS011;7480;43.124;25.686;2023-07-09T08:04:38;6.80;;;3.95;;
14776;SDS011;7480;43.124;25.686;2023-07-09T08:07:06;6.32;;;3.72;;
14776;SDS011;7480;43.124;25.686;2023-07-09T08:09:34;7.03;;;3.40;;
14776;SDS011;7480;43.124;25.686;2023-07-09T08:12:02;6.53;;;3.55;;
14776;SDS011;7480;43.124;25.686;2023-07-09T08:14:36;5.82;;;3.38;;
14776;SDS011;7480;43.124;25.686;2023-07-09T08:17:03;5.28;;;3.85;;
14776;SDS011;7480;43.124;25.686;2023-07-09T08:19:30;5.22;;;3.75;;
14776;SDS011;7480;43.124;25.686;2023-07-09T08:21:58;4.70;;;3.90;;
14776;SDS011;7480;43.124;25.686;2023-07-09T08:24:24;5.07;;;3.65;;
14776;SDS011;7480;43.124;25.686;2023-07-09T08:26:51;5.28;;;3.83;;
14776;SDS011;7480;43.124;25.686;2023-07-09T08:29:18;5.22;;;3.90;;
14776;SDS011;7480;43.124;25.686;2023-07-09T08:31:44;4.20;;;3.80;;
14776;SDS011;7480;43.124;25.686;2023-07-09T08:34:12;4.70;;;3.67;;
14776;SDS011;7480;43.124;25.686;2023-07-09T08:36:38;4.65;;;3.70;;
14776;SDS011;7480;43.124;25.686;2023-07-09T08:39:05;4.38;;;3.90;;
14776;SDS011;7480;43.124;25.686;2023-07-09T08:50:04;7.15;;;3.60;;
14776;SDS011;7480;43.124;25.686;2023-07-09T08:52:44;7.05;;;3.60;;
14776;SDS011;7480;43.124;25.686;2023-07-09T08:55:21;3.92;;;3.50;;
14776;SDS011;7480;43.124;25.686;2023-07-09T08:57:55;5.85;;;3.78;;
14776;SDS011;7480;43.124;25.686;2023-07-09T09:00:30;4.57;;;3.92;;
14776;SDS011;7480;43.124;25.686;2023-07-09T09:03:04;5.47;;;3.85;;
14776;SDS011;7480;43.124;25.686;2023-07-09T09:05:38;3.88;;;3.40;;
14776;SDS011;7480;43.124;25.686;2023-07-09T09:11:20;4.60;;;3.78;;
14776;SDS011;7480;43.124;25.686;2023-07-09T09:13:53;5.95;;;3.80;;
14776;SDS011;7480;43.124;25.686;2023-07-09T09:16:24;4.25;;;3.47;;
14776;SDS011;7480;43.124;25.686;2023-07-09T09:18:54;4.15;;;3.63;;
14776;SDS011;7480;43.124;25.686;2023-07-09T09:21:25;6.80;;;3.75;;
14776;SDS011;7480;43.124;25.686;2023-07-09T09:23:56;5.07;;;3.60;;
14776;SDS011;7480;43.124;25.686;2023-07-09T09:26:32;5.72;;;4.00;;
14776;SDS011;7480;43.124;25.686;2023-07-09T09:29:00;4.70;;;3.97;;
14776;SDS011;7480;43.124;25.686;2023-07-09T09:31:36;9.10;;;4.15;;
14776;SDS011;7480;43.124;25.686;2023-07-09T09:34:03;7.78;;;3.78;;
14776;SDS011;7480;43.124;25.686;2023-07-09T09:36:31;4.57;;;4.00;;
14776;SDS011;7480;43.124;25.686;2023-07-09T09:39:03;5.47;;;4.03;;
14776;SDS011;7480;43.124;25.686;2023-07-09T09:41:30;4.88;;;4.03;;
14776;SDS011;7480;43.124;25.686;2023-07-09T09:43:57;5.10;;;4.00;;
14776;SDS011;7480;43.124;25.686;2023-07-09T09:46:25;4.85;;;3.80;;
14776;SDS011;7480;43.124;25.686;2023-07-09T09:48:58;5.38;;;3.75;;
14776;SDS011;7480;43.124;25.686;2023-07-09T09:51:26;4.47;;;3.85;;
14776;SDS011;7480;43.124;25.686;2023-07-09T09:53:58;7.32;;;4.07;;
14776;SDS011;7480;43.124;25.686;2023-07-09T09:58:57;4.13;;;3.72;;
14776;SDS011;7480;43.124;25.686;2023-07-09T10:01:28;6.93;;;3.83;;
14776;SDS011;7480;43.124;25.686;2023-07-09T10:03:57;4.00;;;3.47;;
14776;SDS011;7480;43.124;25.686;2023-07-09T10:11:45;6.20;;;3.33;;
14776;SDS011;7480;43.124;25.686;2023-07-09T10:14:26;4.10;;;3.42;;
14776;SDS011;7480;43.124;25.686;2023-07-09T10:19:53;6.20;;;3.70;;
14776;SDS011;7480;43.124;25.686;2023-07-09T10:22:55;4.28;;;3.70;;
14776;SDS011;7480;43.124;25.686;2023-07-09T10:28:23;8.63;;;3.70;;
14776;SDS011;7480;43.124;25.686;2023-07-09T10:31:10;4.10;;;3.70;;
14776;SDS011;7480;43.124;25.686;2023-07-09T10:36:38;6.43;;;4.03;;
14776;SDS011;7480;43.124;25.686;2023-07-09T10:39:22;4.88;;;3.83;;
14776;SDS011;7480;43.124;25.686;2023-07-09T10:41:52;4.15;;;3.58;;
14776;SDS011;7480;43.124;25.686;2023-07-09T10:44:24;3.72;;;3.35;;
14776;SDS011;7480;43.124;25.686;2023-07-09T10:47:04;5.22;;;3.30;;
14776;SDS011;7480;43.124;25.686;2023-07-09T10:49:35;5.97;;;3.72;;
14776;SDS011;7480;43.124;25.686;2023-07-09T10:52:05;6.78;;;3.22;;
14776;SDS011;7480;43.124;25.686;2023-07-09T10:54:41;3.70;;;3.33;;
14776;SDS011;7480;43.124;25.686;2023-07-09T10:57:28;4.47;;;3.28;;
14776;SDS011;7480;43.124;25.686;2023-07-09T10:59:56;4.25;;;3.78;;
14776;SDS011;7480;43.124;25.686;2023-07-09T11:05:00;4.13;;;3.53;;
14776;SDS011;7480;43.124;25.686;2023-07-09T11:07:33;3.58;;;3.28;;
14776;SDS011;7480;43.124;25.686;2023-07-09T11:10:03;3.75;;;3.13;;
14776;SDS011;7480;43.124;25.686;2023-07-09T11:12:42;3.97;;;3.55;;
14776;SDS011;7480;43.124;25.686;2023-07-09T11:15:19;4.93;;;3.45;;
14776;SDS011;7480;43.124;25.686;2023-07-09T11:17:49;3.92;;;3.20;;
14776;SDS011;7480;43.124;25.686;2023-07-09T11:20:19;3.88;;;2.88;;
14776;SDS011;7480;43.124;25.686;2023-07-09T11:22:52;4.63;;;3.55;;
14776;SDS011;7480;43.124;25.686;2023-07-09T11:25:46;5.85;;;2.90;;
14776;SDS011;7480;43.124;25.686;2023-07-09T11:28:14;4.07;;;2.95;;
14776;SDS011;7480;43.124;25.686;2023-07-09T11:30:51;3.85;;;2.78;;
14776;SDS011;7480;43.124;25.686;2023-07-09T11:33:28;5.53;;;2.63;;
14776;SDS011;7480;43.124;25.686;2023-07-09T11:38:43;5.50;;;3.00;;
14776;SDS011;7480;43.124;25.686;2023-07-09T11:44:00;10.77;;;3.05;;
14776;SDS011;7480;43.124;25.686;2023-07-09T11:46:40;3.15;;;2.63;;
14776;SDS011;7480;43.124;25.686;2023-07-09T11:49:15;5.70;;;2.42;;
14776;SDS011;7480;43.124;25.686;2023-07-09T11:51:46;4.10;;;2.58;;
14776;SDS011;7480;43.124;25.686;2023-07-09T11:54:17;4.60;;;2.92;;
14776;SDS011;7480;43.124;25.686;2023-07-09T11:56:54;2.85;;;2.08;;
14776;SDS011;7480;43.124;25.686;2023-07-09T11:59:23;2.50;;;2.13;;
14776;SDS011;7480;43.124;25.686;2023-07-09T12:01:50;3.92;;;2.50;;
14776;SDS011;7480;43.124;25.686;2023-07-09T12:04:20;5.80;;;2.92;;
14776;SDS011;7480;43.124;25.686;2023-07-09T12:06:57;4.13;;;2.80;;
14776;SDS011;7480;43.124;25.686;2023-07-09T12:09:24;3.60;;;2.90;;
14776;SDS011;7480;43.124;25.686;2023-07-09T12:11:58;8.02;;;2.75;;
14776;SDS011;7480;43.124;25.686;2023-07-09T12:14:24;5.20;;;2.65;;
14776;SDS011;7480;43.124;25.686;2023-07-09T12:16:53;4.13;;;2.80;;
14776;SDS011;7480;43.124;25.686;2023-07-09T12:19:21;5.53;;;3.53;;
14776;SDS011;7480;43.124;25.686;2023-07-09T12:21:51;4.75;;;3.20;;
14776;SDS011;7480;43.124;25.686;2023-07-09T12:24:26;3.53;;;2.70;;
14776;SDS011;7480;43.124;25.686;2023-07-09T12:26:55;5.82;;;3.05;;
14776;SDS011;7480;43.124;25.686;2023-07-09T12:29:25;3.55;;;3.15;;
14776;SDS011;7480;43.124;25.686;2023-07-09T12:31:52;3.50;;;3.05;;
14776;SDS011;7480;43.124;25.686;2023-07-09T12:34:19;4.93;;;3.08;;
14776;SDS011;7480;43.124;25.686;2023-07-09T12:36:46;8.57;;;3.03;;
14776;SDS011;7480;43.124;25.686;2023-07-09T12:39:16;4.70;;;2.80;;
14776;SDS011;7480;43.124;25.686;2023-07-09T12:41:44;4.43;;;2.83;;
14776;SDS011;7480;43.124;25.686;2023-07-09T12:44:16;3.20;;;2.90;;
14776;SDS011;7480;43.124;25.686;2023-07-09T12:46:45;3.25;;;2.95;;
14776;SDS011;7480;43.124;25.686;2023-07-09T12:49:18;6.97;;;3.60;;
14776;SDS011;7480;43.124;25.686;2023-07-09T12:51:48;3.10;;;2.80;;
14776;SDS011;7480;43.124;25.686;2023-07-09T12:54:19;5.53;;;3.25;;
14776;SDS011;7480;43.124;25.686;2023-07-09T12:56:50;4.53;;;3.50;;
14776;SDS011;7480;43.124;25.686;2023-07-09T12:59:20;3.65;;;2.95;;
14776;SDS011;7480;43.124;25.686;2023-07-09T13:01:54;3.85;;;3.40;;
14776;SDS011;7480;43.124;25.686;2023-07-09T13:04:41;4.30;;;3.42;;
14776;SDS011;7480;43.124;25.686;2023-07-09T13:09:51;4.40;;;3.67;;
14776;SDS011;7480;43.124;25.686;2023-07-09T13:12:21;4.57;;;3.88;;
14776;SDS011;7480;43.124;25.686;2023-07-09T13:14:55;4.20;;;3.70;;
14776;SDS011;7480;43.124;25.686;2023-07-09T13:17:29;4.57;;;3.67;;
14776;SDS011;7480;43.124;25.686;2023-07-09T13:19:57;5.13;;;3.63;;
14776;SDS011;7480;43.124;25.686;2023-07-09T13:22:27;4.13;;;3.50;;
14776;SDS011;7480;43.124;25.686;2023-07-09T13:24:54;5.30;;;3.83;;
14776;SDS011;7480;43.124;25.686;2023-07-09T13:27:21;4.00;;;3.58;;
14776;SDS011;7480;43.124;25.686;2023-07-09T13:29:48;5.30;;;3.95;;
14776;SDS011;7480;43.124;25.686;2023-07-09T13:32:15;5.30;;;3.45;;
14776;SDS011;7480;43.124;25.686;2023-07-09T13:34:42;4.22;;;3.83;;
14776;SDS011;7480;43.124;25.686;2023-07-09T13:37:13;5.65;;;4.05;;
14776;SDS011;7480;43.124;25.686;2023-07-09T13:39:41;5.47;;;3.72;;
14776;SDS011;7480;43.124;25.686;2023-07-09T13:42:10;4.78;;;3.63;;
14776;SDS011;7480;43.124;25.686;2023-07-09T13:44:38;4.10;;;3.70;;
14776;SDS011;7480;43.124;25.686;2023-07-09T13:47:08;5.45;;;3.45;;
14776;SDS011;7480;43.124;25.686;2023-07-09T13:49:37;4.75;;;3.72;;
14776;SDS011;7480;43.124;25.686;2023-07-09T13:52:04;4.70;;;3.30;;
14776;SDS011;7480;43.124;25.686;2023-07-09T13:54:32;3.88;;;3.53;;
14776;SDS011;7480;43.124;25.686;2023-07-09T13:57:04;4.63;;;3.38;;
14776;SDS011;7480;43.124;25.686;2023-07-09T13:59:32;6.68;;;3.70;;
14776;SDS011;7480;43.124;25.686;2023-07-09T14:01:59;5.07;;;3.70;;
14776;SDS011;7480;43.124;25.686;2023-07-09T14:04:26;4.25;;;3.85;;
14776;SDS011;7480;43.124;25.686;2023-07-09T14:06:54;5.15;;;3.88;;
14776;SDS011;7480;43.124;25.686;2023-07-09T14:09:21;4.07;;;3.65;;
14776;SDS011;7480;43.124;25.686;2023-07-09T14:11:49;5.65;;;3.50;;
14776;SDS011;7480;43.124;25.686;2023-07-09T14:14:18;3.45;;;3.15;;
14776;SDS011;7480;43.124;25.686;2023-07-09T14:16:46;3.83;;;3.50;;
14776;SDS011;7480;43.124;25.686;2023-07-09T14:19:19;5.30;;;3.30;;
14776;SDS011;7480;43.124;25.686;2023-07-09T14:21:48;5.40;;;3.60;;
14776;SDS011;7480;43.124;25.686;2023-07-09T14:26:53;5.30;;;3.70;;
14776;SDS011;7480;43.124;25.686;2023-07-09T14:29:22;6.25;;;3.20;;
14776;SDS011;7480;43.124;25.686;2023-07-09T14:31:49;4.75;;;3.88;;
14776;SDS011;7480;43.124;25.686;2023-07-09T14:34:23;4.43;;;3.47;;
14776;SDS011;7480;43.124;25.686;2023-07-09T14:36:52;3.47;;;3.15;;
14776;SDS011;7480;43.124;25.686;2023-07-09T14:39:19;3.35;;;3.05;;
14776;SDS011;7480;43.124;25.686;2023-07-09T14:41:47;4.68;;;3.60;;
14776;SDS011;7480;43.124;25.686;2023-07-09T14:46:57;4.45;;;3.58;;
14776;SDS011;7480;43.124;25.686;2023-07-09T14:49:25;5.03;;;3.63;;
14776;SDS011;7480;43.124;25.686;2023-07-09T14:51:53;5.25;;;3.58;;
14776;SDS011;7480;43.124;25.686;2023-07-09T14:54:24;4.35;;;3.60;;
14776;SDS011;7480;43.124;25.686;2023-07-09T14:56:53;4.85;;;3.80;;
14776;SDS011;7480;43.124;25.686;2023-07-09T14:59:20;5.07;;;3.70;;
14776;SDS011;7480;43.124;25.686;2023-07-09T15:01:47;4.75;;;3.58;;
14776;SDS011;7480;43.124;25.686;2023-07-09T15:06:47;4.10;;;3.50;;
14776;SDS011;7480;43.124;25.686;2023-07-09T15:09:16;4.28;;;3.63;;
14776;SDS011;7480;43.124;25.686;2023-07-09T15:11:45;4.53;;;3.55;;
14776;SDS011;7480;43.124;25.686;2023-07-09T15:14:12;6.15;;;3.80;;
14776;SDS011;7480;43.124;25.686;2023-07-09T15:16:40;3.60;;;3.30;;
14776;SDS011;7480;43.124;25.686;2023-07-09T15:19:17;4.80;;;3.55;;
14776;SDS011;7480;43.124;25.686;2023-07-09T15:21:45;5.78;;;3.10;;
14776;SDS011;7480;43.124;25.686;2023-07-09T15:26:49;4.88;;;3.38;;
14776;SDS011;7480;43.124;25.686;2023-07-09T15:29:20;4.63;;;3.50;;
14776;SDS011;7480;43.124;25.686;2023-07-09T15:31:47;4.65;;;4.03;;
14776;SDS011;7480;43.124;25.686;2023-07-09T15:34:14;4.57;;;3.90;;
14776;SDS011;7480;43.124;25.686;2023-07-09T15:36:43;4.07;;;3.78;;
14776;SDS011;7480;43.124;25.686;2023-07-09T15:39:11;4.75;;;3.65;;
14776;SDS011;7480;43.124;25.686;2023-07-09T15:41:40;7.03;;;3.88;;
14776;SDS011;7480;43.124;25.686;2023-07-09T15:44:10;5.03;;;3.70;;